Time;durP1;ratioP1;P1;durP2;ratioP2;P2;SDS_P1;SDS_P2;PMS_P1;PMS_P2;Temp;Humidity;BMP_temperature;BMP_pressure;BME280_temperature;BME280_humidity;BME280_pressure;Samples;Min_cycle;Max_cycle;Signal;HPM_P1;HPM_P2
2023/12/18 00:01:59;;;;;;;;;;;18.80;60.60;;;;;;5095905;28;906;-69
2023/12/18 00:04:24;;;;;;;;;;;18.80;60.60;;;;;;5081822;28;1362;-69
2023/12/18 00:06:49;;;;;;;;;;;18.70;60.60;;;;;;5069016;28;1142;-70
2023/12/18 00:09:15;;;;;;;;;;;18.80;60.60;;;;;;5067059;28;1288;-69
2023/12/18 00:11:40;;;;;;;;;;;18.80;60.70;;;;;;5071314;28;1058;-69
2023/12/18 00:14:06;;;;;;;;;;;18.80;60.70;;;;;;5072448;28;891;-69
2023/12/18 00:16:31;;;;;;;;;;;18.70;60.70;;;;;;5068318;28;1101;-69
2023/12/18 00:18:57;;;;;;;;;;;18.70;60.70;;;;;;5070596;28;1909;-69
2023/12/18 00:21:22;;;;;;;;;;;18.80;60.80;;;;;;5069048;28;1004;-70
2023/12/18 00:23:48;;;;;;;;;;;18.70;60.70;;;;;;5069873;28;1085;-70
2023/12/18 00:26:13;;;;;;;;;;;18.70;60.70;;;;;;5071578;28;1445;-69
2023/12/18 00:28:38;;;;;;;;;;;18.70;60.70;;;;;;5064748;28;1659;-69
2023/12/18 00:31:04;;;;;;;;;;;18.70;60.80;;;;;;5067618;28;1146;-69
2023/12/18 00:33:29;;;;;;;;;;;18.70;60.80;;;;;;5068927;28;1474;-69
2023/12/18 00:35:55;;;;;;;;;;;18.70;60.80;;;;;;5067020;28;1262;-70
2023/12/18 00:38:20;;;;;;;;;;;18.70;60.90;;;;;;5063664;28;1973;-69
2023/12/18 00:40:46;;;;;;;;;;;18.70;60.90;;;;;;5068326;28;1287;-69
2023/12/18 00:43:11;;;;;;;;;;;18.70;60.90;;;;;;5065533;28;1481;-70
2023/12/18 00:45:37;;;;;;;;;;;18.70;60.90;;;;;;5066716;28;1207;-69
2023/12/18 00:48:02;;;;;;;;;;;18.70;60.90;;;;;;5069463;28;825;-69
2023/12/18 00:50:28;;;;;;;;;;;18.70;60.90;;;;;;5060560;28;1264;-70
2023/12/18 00:52:53;;;;;;;;;;;18.70;61.00;;;;;;5068398;28;1553;-70
2023/12/18 00:55:19;;;;;;;;;;;18.70;61.70;;;;;;5068971;28;1119;-70
2023/12/18 00:57:44;;;;;;;;;;;18.70;61.00;;;;;;5072355;28;2009;-69
2023/12/18 01:00:10;;;;;;;;;;;18.70;61.00;;;;;;5074175;28;1299;-69
2023/12/18 01:02:35;;;;;;;;;;;18.70;61.80;;;;;;5096081;28;1156;-69
2023/12/18 01:05:01;;;;;;;;;;;18.70;61.10;;;;;;5093975;28;883;-69
2023/12/18 01:07:29;;;;;;;;;;;18.70;61.10;;;;;;5058352;28;796;-69
2023/12/18 01:09:58;;;;;;;;;;;18.70;61.10;;;;;;5063113;28;1395;-69
2023/12/18 01:12:24;;;;;;;;;;;18.70;61.20;;;;;;5063873;28;951;-69
2023/12/18 01:14:50;;;;;;;;;;;18.70;61.10;;;;;;5066217;28;1088;-69
2023/12/18 01:17:15;;;;;;;;;;;18.70;61.10;;;;;;5065465;28;1959;-69
2023/12/18 01:19:41;;;;;;;;;;;18.70;61.20;;;;;;5063228;28;1807;-70
2023/12/18 01:22:06;;;;;;;;;;;18.70;61.20;;;;;;5062581;28;1417;-69
2023/12/18 01:24:31;;;;;;;;;;;18.70;61.20;;;;;;5064302;28;1022;-69
2023/12/18 01:26:57;;;;;;;;;;;18.70;61.20;;;;;;5063555;28;1351;-69
2023/12/18 01:29:22;;;;;;;;;;;18.70;61.20;;;;;;5063292;28;1369;-69
2023/12/18 01:31:48;;;;;;;;;;;18.60;61.20;;;;;;5061361;28;1153;-70
2023/12/18 01:34:13;;;;;;;;;;;18.70;61.20;;;;;;5064490;28;859;-69
2023/12/18 01:36:39;;;;;;;;;;;18.60;61.20;;;;;;5066896;28;1129;-70
2023/12/18 01:39:04;;;;;;;;;;;18.60;62.00;;;;;;5068043;28;1902;-69
2023/12/18 01:41:30;;;;;;;;;;;18.60;61.20;;;;;;5069928;28;1113;-70
2023/12/18 01:43:55;;;;;;;;;;;18.60;61.30;;;;;;5070661;28;786;-69
2023/12/18 01:46:24;;;;;;;;;;;18.60;62.10;;;;;;5102459;28;1003;-69
2023/12/18 01:48:50;;;;;;;;;;;18.60;61.30;;;;;;5103384;28;1279;-69
2023/12/18 01:51:15;;;;;;;;;;;18.60;61.30;;;;;;5061900;28;895;-69
2023/12/18 01:53:42;;;;;;;;;;;18.60;61.30;;;;;;5063530;28;831;-70
2023/12/18 01:56:07;;;;;;;;;;;18.60;61.30;;;;;;5068801;28;1240;-69
2023/12/18 01:58:33;;;;;;;;;;;18.60;61.40;;;;;;5064353;28;1906;-70
2023/12/18 02:00:59;;;;;;;;;;;18.60;61.40;;;;;;5095191;28;1208;-69
2023/12/18 02:03:24;;;;;;;;;;;18.60;61.40;;;;;;5080126;28;1330;-69
2023/12/18 02:05:50;;;;;;;;;;;18.60;61.40;;;;;;5069547;28;830;-69
2023/12/18 02:08:15;;;;;;;;;;;18.60;61.40;;;;;;5096612;28;949;-69
2023/12/18 02:10:41;;;;;;;;;;;18.60;61.40;;;;;;5064519;28;1315;-69
2023/12/18 02:13:06;;;;;;;;;;;18.60;61.50;;;;;;5065168;28;1255;-69
2023/12/18 02:15:32;;;;;;;;;;;18.60;61.50;;;;;;5095875;28;825;-69
2023/12/18 02:17:57;;;;;;;;;;;18.60;61.50;;;;;;5067575;28;2037;-69
2023/12/18 02:20:23;;;;;;;;;;;18.60;61.50;;;;;;5065132;28;1354;-69
2023/12/18 02:22:48;;;;;;;;;;;18.60;61.50;;;;;;5065088;28;981;-69
2023/12/18 02:25:15;;;;;;;;;;;18.60;61.50;;;;;;5062752;28;1153;-70
2023/12/18 02:27:40;;;;;;;;;;;18.60;61.50;;;;;;5055549;28;1498;-70
2023/12/18 02:30:06;;;;;;;;;;;18.60;61.60;;;;;;5088606;28;1362;-69
2023/12/18 02:32:31;;;;;;;;;;;18.60;61.60;;;;;;5056731;28;1001;-69
2023/12/18 02:34:57;;;;;;;;;;;18.60;61.60;;;;;;5044264;28;1309;-70
2023/12/18 02:37:24;;;;;;;;;;;18.60;61.60;;;;;;5060144;28;2001;-69
2023/12/18 02:39:49;;;;;;;;;;;18.60;61.60;;;;;;5089856;28;1381;-69
2023/12/18 02:42:15;;;;;;;;;;;18.60;61.70;;;;;;5055220;28;1163;-69
2023/12/18 02:44:40;;;;;;;;;;;18.60;61.60;;;;;;5059223;28;1537;-71
2023/12/18 02:47:06;;;;;;;;;;;18.60;61.70;;;;;;5055326;28;1873;-71
2023/12/18 02:49:31;;;;;;;;;;;18.60;61.70;;;;;;5058443;28;1426;-71
2023/12/18 02:51:57;;;;;;;;;;;18.60;62.40;;;;;;5059381;28;1411;-71
2023/12/18 02:54:22;;;;;;;;;;;18.60;61.70;;;;;;5059128;28;1227;-69
2023/12/18 02:56:48;;;;;;;;;;;18.60;61.70;;;;;;5059943;28;1176;-71
2023/12/18 02:59:13;;;;;;;;;;;18.60;61.70;;;;;;5057062;28;1898;-71
2023/12/18 03:01:38;;;;;;;;;;;18.60;61.70;;;;;;5059156;28;1138;-70
2023/12/18 03:04:04;;;;;;;;;;;18.60;61.80;;;;;;5056403;28;1209;-71
2023/12/18 03:06:29;;;;;;;;;;;18.60;61.70;;;;;;5058209;28;1445;-71
2023/12/18 03:08:55;;;;;;;;;;;18.60;61.80;;;;;;5056554;28;1689;-71
2023/12/18 03:11:20;;;;;;;;;;;18.50;61.70;;;;;;5057837;28;1387;-71
2023/12/18 03:13:46;;;;;;;;;;;18.60;61.80;;;;;;5089258;28;1356;-71
2023/12/18 03:16:11;;;;;;;;;;;18.50;62.50;;;;;;5058236;28;1278;-71
2023/12/18 03:18:37;;;;;;;;;;;18.60;61.80;;;;;;5057542;28;1898;-69
2023/12/18 03:21:02;;;;;;;;;;;18.50;61.80;;;;;;5060259;28;1426;-71
2023/12/18 03:23:28;;;;;;;;;;;18.50;62.50;;;;;;5060097;28;1260;-71
2023/12/18 03:25:53;;;;;;;;;;;18.50;61.80;;;;;;5056002;28;1503;-71
2023/12/18 03:28:19;;;;;;;;;;;18.50;61.80;;;;;;5058745;28;1633;-71
2023/12/18 03:30:44;;;;;;;;;;;18.50;61.80;;;;;;5057383;28;1564;-71
2023/12/18 03:33:10;;;;;;;;;;;18.50;61.80;;;;;;5089529;28;1451;-70
2023/12/18 03:35:35;;;;;;;;;;;18.50;61.80;;;;;;5057365;28;1468;-70
2023/12/18 03:38:01;;;;;;;;;;;18.50;61.80;;;;;;5055863;28;1906;-70
2023/12/18 03:40:26;;;;;;;;;;;18.50;61.90;;;;;;5057940;28;1588;-71
2023/12/18 03:42:52;;;;;;;;;;;18.50;61.80;;;;;;5058054;28;1529;-70
2023/12/18 03:45:17;;;;;;;;;;;18.50;61.90;;;;;;5058031;28;1443;-71
2023/12/18 03:47:43;;;;;;;;;;;18.50;61.90;;;;;;5055023;28;1264;-71
2023/12/18 03:50:08;;;;;;;;;;;18.50;61.90;;;;;;5053582;28;1292;-71
2023/12/18 03:52:34;;;;;;;;;;;18.50;61.90;;;;;;5058690;28;1225;-69
2023/12/18 03:54:59;;;;;;;;;;;18.50;61.90;;;;;;5054412;28;1366;-70
2023/12/18 03:57:25;;;;;;;;;;;18.50;62.00;;;;;;5058044;28;1898;-69
2023/12/18 03:59:50;;;;;;;;;;;18.50;62.00;;;;;;5064721;28;1416;-70
2023/12/18 04:02:15;;;;;;;;;;;18.50;62.00;;;;;;5081499;28;1194;-70
2023/12/18 04:04:41;;;;;;;;;;;18.50;62.00;;;;;;5062458;28;1512;-70
2023/12/18 04:07:07;;;;;;;;;;;18.50;62.00;;;;;;5061681;28;1137;-70
2023/12/18 04:09:32;;;;;;;;;;;18.50;62.00;;;;;;5064437;28;1284;-70
2023/12/18 04:11:58;;;;;;;;;;;18.50;62.00;;;;;;5057437;28;1321;-73
2023/12/18 04:14:23;;;;;;;;;;;18.50;62.00;;;;;;5062658;28;1310;-69
2023/12/18 04:16:49;;;;;;;;;;;18.50;62.00;;;;;;5060175;28;1635;-70
2023/12/18 04:19:14;;;;;;;;;;;18.50;62.10;;;;;;5066623;28;1918;-69
2023/12/18 04:21:40;;;;;;;;;;;18.50;62.10;;;;;;5062337;28;1148;-71
2023/12/18 04:24:05;;;;;;;;;;;18.50;62.10;;;;;;5061069;28;1342;-70
2023/12/18 04:26:31;;;;;;;;;;;18.50;62.10;;;;;;5059548;28;1450;-71
2023/12/18 04:28:56;;;;;;;;;;;18.50;62.10;;;;;;5057941;28;1723;-70
2023/12/18 04:31:22;;;;;;;;;;;18.50;62.10;;;;;;5058162;28;1449;-70
2023/12/18 04:33:47;;;;;;;;;;;18.50;62.10;;;;;;5058861;28;1418;-71
2023/12/18 04:36:13;;;;;;;;;;;18.50;62.10;;;;;;5061182;28;1495;-70
2023/12/18 04:38:39;;;;;;;;;;;18.50;62.10;;;;;;5058145;28;1961;-71
2023/12/18 04:41:05;;;;;;;;;;;18.50;62.20;;;;;;5062055;28;1357;-71
2023/12/18 04:43:30;;;;;;;;;;;18.50;62.20;;;;;;5058132;28;1255;-71
2023/12/18 04:45:58;;;;;;;;;;;18.50;62.10;;;;;;5060654;28;1177;-70
2023/12/18 04:48:24;;;;;;;;;;;18.50;62.20;;;;;;5093347;28;1493;-71
2023/12/18 04:50:49;;;;;;;;;;;18.50;62.20;;;;;;5061925;28;1398;-71
2023/12/18 04:53:14;;;;;;;;;;;18.50;62.20;;;;;;5060224;28;1411;-71
2023/12/18 04:55:40;;;;;;;;;;;18.50;62.20;;;;;;5062399;28;1279;-70
2023/12/18 04:58:05;;;;;;;;;;;18.50;62.20;;;;;;5060264;28;1902;-70
2023/12/18 05:00:31;;;;;;;;;;;18.50;62.20;;;;;;5061331;28;1450;-70
2023/12/18 05:02:56;;;;;;;;;;;18.50;62.20;;;;;;5060390;28;1688;-70
2023/12/18 05:05:22;;;;;;;;;;;18.50;62.20;;;;;;5058424;28;1247;-70
2023/12/18 05:07:47;;;;;;;;;;;18.50;62.20;;;;;;5059110;28;1491;-71
2023/12/18 05:10:13;;;;;;;;;;;18.50;62.20;;;;;;5058852;28;1300;-70
2023/12/18 05:12:38;;;;;;;;;;;18.50;62.10;;;;;;5062063;28;1155;-70
2023/12/18 05:15:05;;;;;;;;;;;18.60;62.10;;;;;;5061686;28;1131;-71
2023/12/18 05:17:30;;;;;;;;;;;18.60;62.10;;;;;;5059862;28;1968;-71
2023/12/18 05:19:55;;;;;;;;;;;18.70;62.10;;;;;;5058792;28;1761;-72
2023/12/18 05:22:21;;;;;;;;;;;18.80;61.90;;;;;;5057810;28;1435;-71
2023/12/18 05:24:47;;;;;;;;;;;19.00;61.60;;;;;;5058519;28;1440;-70
2023/12/18 05:27:12;;;;;;;;;;;19.10;61.20;;;;;;5057912;28;1396;-71
2023/12/18 05:29:38;;;;;;;;;;;19.20;60.90;;;;;;5060700;28;1454;-71
2023/12/18 05:32:03;;;;;;;;;;;19.40;60.50;;;;;;5061625;28;1285;-71
2023/12/18 05:34:29;;;;;;;;;;;19.50;60.20;;;;;;5062234;28;1380;-71
2023/12/18 05:36:54;;;;;;;;;;;19.60;59.90;;;;;;5059039;28;1311;-71
2023/12/18 05:39:19;;;;;;;;;;;19.70;59.60;;;;;;5058391;28;1886;-71
2023/12/18 05:41:45;;;;;;;;;;;19.80;59.40;;;;;;5063773;28;1269;-70
2023/12/18 05:44:10;;;;;;;;;;;19.90;59.20;;;;;;5068841;28;834;-69
2023/12/18 05:46:36;;;;;;;;;;;20.10;59.00;;;;;;5065445;28;953;-70
2023/12/18 05:49:04;;;;;;;;;;;20.10;58.80;;;;;;5068712;28;1287;-70
2023/12/18 05:51:29;;;;;;;;;;;20.20;58.60;;;;;;5060242;28;1341;-70
2023/12/18 05:53:55;;;;;;;;;;;20.30;58.40;;;;;;5059003;28;1361;-71
2023/12/18 05:56:22;;;;;;;;;;;20.40;58.30;;;;;;5061945;28;1467;-70
2023/12/18 05:58:48;;;;;;;;;;;20.40;58.10;;;;;;5059865;28;1977;-71
2023/12/18 06:01:13;;;;;;;;;;;20.50;57.90;;;;;;5057876;28;1462;-70
2023/12/18 06:03:39;;;;;;;;;;;20.60;57.80;;;;;;5059796;28;1395;-72
2023/12/18 06:06:04;;;;;;;;;;;20.60;57.60;;;;;;5060558;28;1342;-69
2023/12/18 06:08:30;;;;;;;;;;;20.70;57.60;;;;;;5061428;28;1288;-70
2023/12/18 06:10:55;;;;;;;;;;;20.70;57.50;;;;;;5058803;28;1435;-70
2023/12/18 06:13:21;;;;;;;;;;;20.70;57.40;;;;;;5056625;28;1185;-70
2023/12/18 06:15:46;;;;;;;;;;;20.80;57.30;;;;;;5058945;28;1433;-70
2023/12/18 06:18:11;;;;;;;;;;;20.80;57.20;;;;;;5089933;28;1902;-70
2023/12/18 06:20:37;;;;;;;;;;;20.90;57.20;;;;;;5061162;28;1644;-70
2023/12/18 06:23:02;;;;;;;;;;;20.90;57.20;;;;;;5056830;28;1283;-70
2023/12/18 06:25:28;;;;;;;;;;;20.90;57.00;;;;;;5057208;28;1032;-70
2023/12/18 06:27:53;;;;;;;;;;;21.00;57.00;;;;;;5057280;28;1297;-70
2023/12/18 06:30:19;;;;;;;;;;;21.00;57.00;;;;;;5058002;28;1366;-70
2023/12/18 06:32:44;;;;;;;;;;;21.00;56.90;;;;;;5059197;28;1046;-70
2023/12/18 06:35:10;;;;;;;;;;;21.00;56.90;;;;;;5058260;28;1416;-70
2023/12/18 06:37:35;;;;;;;;;;;21.00;56.80;;;;;;5058666;28;1973;-69
2023/12/18 06:40:01;;;;;;;;;;;21.10;56.90;;;;;;5057646;28;1334;-70
2023/12/18 06:42:26;;;;;;;;;;;21.10;56.80;;;;;;5091909;28;1341;-69
2023/12/18 06:44:52;;;;;;;;;;;21.10;56.80;;;;;;5058592;28;1502;-69
2023/12/18 06:47:17;;;;;;;;;;;21.20;56.80;;;;;;5057120;28;1327;-69
2023/12/18 06:49:42;;;;;;;;;;;21.10;56.50;;;;;;5059621;28;1525;-68
2023/12/18 06:52:08;;;;;;;;;;;21.10;55.60;;;;;;5058210;28;1890;-67
2023/12/18 06:54:34;;;;;;;;;;;21.10;55.50;;;;;;5057471;28;2178;-67
2023/12/18 06:57:00;;;;;;;;;;;21.10;55.30;;;;;;5055376;28;1460;-68
2023/12/18 06:59:25;;;;;;;;;;;21.10;55.30;;;;;;5057401;28;1913;-69
2023/12/18 07:01:51;;;;;;;;;;;21.10;55.40;;;;;;5059008;28;1621;-69
2023/12/18 07:04:17;;;;;;;;;;;21.20;55.40;;;;;;5058722;28;1248;-67
2023/12/18 07:06:43;;;;;;;;;;;21.20;55.50;;;;;;5057141;28;1406;-67
2023/12/18 07:09:09;;;;;;;;;;;21.20;55.50;;;;;;5057482;28;1393;-69
2023/12/18 07:11:35;;;;;;;;;;;21.20;55.60;;;;;;5055045;28;1336;-66
2023/12/18 07:14:00;;;;;;;;;;;21.20;55.60;;;;;;5060352;28;1426;-69
2023/12/18 07:16:25;;;;;;;;;;;21.20;55.70;;;;;;5056612;28;1491;-69
2023/12/18 07:18:53;;;;;;;;;;;21.20;55.80;;;;;;5071788;28;1989;-70
2023/12/18 07:21:19;;;;;;;;;;;21.20;55.80;;;;;;5054888;28;1227;-69
2023/12/18 07:23:44;;;;;;;;;;;21.20;56.00;;;;;;5055319;28;1511;-70
2023/12/18 07:26:12;;;;;;;;;;;21.20;56.00;;;;;;5055949;28;1254;-69
2023/12/18 07:28:39;;;;;;;;;;;21.10;56.00;;;;;;5088907;28;1535;-68
2023/12/18 07:31:04;;;;;;;;;;;21.20;56.10;;;;;;5056899;28;1463;-69
2023/12/18 07:33:29;;;;;;;;;;;21.10;56.10;;;;;;5059065;28;1372;-68
2023/12/18 07:35:55;;;;;;;;;;;21.10;56.10;;;;;;5059814;28;1426;-68
2023/12/18 07:38:20;;;;;;;;;;;21.10;56.20;;;;;;5061583;28;1965;-68
2023/12/18 07:40:46;;;;;;;;;;;21.10;56.30;;;;;;5065333;28;1467;-69
2023/12/18 07:43:11;;;;;;;;;;;21.10;56.40;;;;;;5059956;28;1250;-69
2023/12/18 07:45:37;;;;;;;;;;;21.00;56.40;;;;;;5058415;28;1856;-70
2023/12/18 07:48:03;;;;;;;;;;;21.00;56.50;;;;;;5063376;28;1224;-69
2023/12/18 07:50:28;;;;;;;;;;;21.00;56.50;;;;;;5090183;28;1263;-71
2023/12/18 07:52:53;;;;;;;;;;;21.00;56.60;;;;;;5060279;28;1367;-70
2023/12/18 07:55:19;;;;;;;;;;;20.90;56.60;;;;;;5062952;28;1232;-70
2023/12/18 07:57:44;;;;;;;;;;;20.90;56.70;;;;;;5062612;28;1938;-69
2023/12/18 08:00:10;;;;;;;;;;;20.90;56.80;;;;;;5062851;28;1383;-69
2023/12/18 08:02:36;;;;;;;;;;;20.90;56.90;;;;;;5060832;28;1648;-68
2023/12/18 08:05:01;;;;;;;;;;;20.80;57.00;;;;;;5069414;28;1704;-68
2023/12/18 08:07:26;;;;;;;;;;;20.80;57.30;;;;;;5096403;28;1452;-68
2023/12/18 08:09:53;;;;;;;;;;;20.80;57.40;;;;;;5063046;28;1414;-69
2023/12/18 08:12:19;;;;;;;;;;;20.80;57.70;;;;;;5064956;28;1522;-69
2023/12/18 08:14:44;;;;;;;;;;;20.70;58.70;;;;;;5061767;28;1441;-69
2023/12/18 08:17:15;;;;;;;;;;;20.70;58.80;;;;;;5064494;28;1440;-68
2023/12/18 08:19:47;;;;;;;;;;;20.70;58.50;;;;;;5092419;28;2167;-69
2023/12/18 08:22:12;;;;;;;;;;;20.70;58.50;;;;;;5079585;28;2000;-68
2023/12/18 08:24:38;;;;;;;;;;;20.70;58.70;;;;;;5062282;28;1664;-69
2023/12/18 08:27:03;;;;;;;;;;;20.70;58.70;;;;;;5064140;28;1417;-69
2023/12/18 08:29:29;;;;;;;;;;;20.70;58.90;;;;;;5060678;28;1351;-68
2023/12/18 08:31:57;;;;;;;;;;;20.60;58.90;;;;;;5062956;28;1597;-69
2023/12/18 08:34:23;;;;;;;;;;;20.60;59.20;;;;;;5042365;28;1366;-68
2023/12/18 08:36:49;;;;;;;;;;;20.60;59.30;;;;;;5061705;28;1384;-69
2023/12/18 08:39:14;;;;;;;;;;;20.60;59.30;;;;;;5093350;28;1902;-70
2023/12/18 08:41:42;;;;;;;;;;;20.60;59.40;;;;;;5093515;28;1602;-70
2023/12/18 08:44:10;;;;;;;;;;;20.60;59.50;;;;;;5059627;28;1276;-70
2023/12/18 08:46:36;;;;;;;;;;;20.60;59.90;;;;;;5061821;28;1593;-70
2023/12/18 08:49:04;;;;;;;;;;;20.50;59.90;;;;;;5061192;28;1394;-70
2023/12/18 08:51:32;;;;;;;;;;;20.50;60.00;;;;;;5058090;28;1469;-70
2023/12/18 08:53:58;;;;;;;;;;;20.50;60.30;;;;;;5090329;28;1664;-70
2023/12/18 08:56:24;;;;;;;;;;;20.50;60.30;;;;;;5050441;28;1412;-70
2023/12/18 08:58:52;;;;;;;;;;;20.50;60.40;;;;;;5060433;28;1910;-70
2023/12/18 09:01:18;;;;;;;;;;;20.50;60.60;;;;;;5059012;28;1437;-68
2023/12/18 09:03:43;;;;;;;;;;;20.50;60.70;;;;;;5061300;28;1448;-70
2023/12/18 09:06:09;;;;;;;;;;;20.50;60.90;;;;;;5078416;28;1360;-70
2023/12/18 09:08:39;;;;;;;;;;;20.50;60.70;;;;;;5089920;28;1258;-70
2023/12/18 09:11:06;;;;;;;;;;;20.50;60.80;;;;;;5090837;28;1385;-68
2023/12/18 09:13:33;;;;;;;;;;;20.50;61.20;;;;;;5059305;28;1605;-69
2023/12/18 09:15:59;;;;;;;;;;;20.40;60.70;;;;;;5059298;28;1735;-69
2023/12/18 09:18:24;;;;;;;;;;;20.50;60.80;;;;;;5076714;28;1913;-68
2023/12/18 09:20:49;;;;;;;;;;;20.50;60.90;;;;;;5058742;28;1309;-69
2023/12/18 09:23:15;;;;;;;;;;;20.40;60.90;;;;;;5091828;28;1365;-69
2023/12/18 09:25:41;;;;;;;;;;;20.50;61.50;;;;;;5089773;28;1483;-69
2023/12/18 09:28:06;;;;;;;;;;;20.50;61.40;;;;;;5091766;28;1520;-69
2023/12/18 09:30:32;;;;;;;;;;;20.50;61.30;;;;;;5059465;28;1457;-70
2023/12/18 09:32:57;;;;;;;;;;;20.50;61.30;;;;;;5092434;28;1393;-70
2023/12/18 09:35:23;;;;;;;;;;;20.50;61.40;;;;;;5058832;28;1222;-69
2023/12/18 09:37:49;;;;;;;;;;;20.50;61.50;;;;;;5058153;28;1906;-69
2023/12/18 09:40:14;;;;;;;;;;;20.40;61.40;;;;;;5091921;28;1291;-69
2023/12/18 09:42:40;;;;;;;;;;;20.40;61.50;;;;;;5057788;28;1262;-70
2023/12/18 09:45:05;;;;;;;;;;;20.40;61.50;;;;;;5060929;28;1229;-71
2023/12/18 09:47:31;;;;;;;;;;;20.40;61.50;;;;;;5076380;28;1246;-70
2023/12/18 09:49:58;;;;;;;;;;;20.40;61.60;;;;;;5044007;28;1307;-71
2023/12/18 09:52:23;;;;;;;;;;;20.40;61.70;;;;;;5057551;28;1299;-71
2023/12/18 09:54:49;;;;;;;;;;;20.40;61.80;;;;;;5091675;28;1354;-69
2023/12/18 09:57:15;;;;;;;;;;;20.40;61.80;;;;;;5043899;28;1283;-68
2023/12/18 09:59:46;;;;;;;;;;;20.40;61.90;;;;;;5091567;28;1901;-69
2023/12/18 10:02:14;;;;;;;;;;;20.40;62.00;;;;;;5046443;28;1391;-70
2023/12/18 10:04:41;;;;;;;;;;;20.40;62.00;;;;;;5084874;28;1626;-70
2023/12/18 10:07:07;;;;;;;;;;;20.40;62.10;;;;;;5059031;28;1325;-69
2023/12/18 10:09:35;;;;;;;;;;;20.40;62.00;;;;;;5090141;28;1295;-69
2023/12/18 10:12:00;;;;;;;;;;;20.40;62.00;;;;;;5060984;28;1590;-70
2023/12/18 10:14:26;;;;;;;;;;;20.40;62.00;;;;;;5044018;28;1288;-70
2023/12/18 10:16:51;;;;;;;;;;;20.40;62.00;;;;;;5090391;28;1722;-70
2023/12/18 10:19:17;;;;;;;;;;;20.40;62.00;;;;;;5058397;28;1890;-69
2023/12/18 10:21:43;;;;;;;;;;;20.40;62.10;;;;;;5088628;28;1409;-70
2023/12/18 10:24:08;;;;;;;;;;;20.40;62.10;;;;;;5091730;28;1355;-69
2023/12/18 10:26:33;;;;;;;;;;;20.40;62.10;;;;;;5059691;28;1471;-70
2023/12/18 10:29:00;;;;;;;;;;;20.40;62.10;;;;;;5059805;28;1459;-69
2023/12/18 10:31:26;;;;;;;;;;;20.40;62.20;;;;;;5089134;28;1397;-71
2023/12/18 10:33:52;;;;;;;;;;;20.40;62.00;;;;;;5058950;28;1367;-70
2023/12/18 10:36:18;;;;;;;;;;;20.40;62.00;;;;;;5092817;28;1272;-70
2023/12/18 10:38:47;;;;;;;;;;;20.40;62.10;;;;;;5090806;28;1904;-70
2023/12/18 10:41:12;;;;;;;;;;;20.40;62.10;;;;;;5089037;28;1459;-71
2023/12/18 10:43:40;;;;;;;;;;;20.40;62.20;;;;;;5056896;28;1128;-69
2023/12/18 10:46:06;;;;;;;;;;;20.40;62.20;;;;;;5076514;28;1279;-70
2023/12/18 10:48:31;;;;;;;;;;;20.40;62.20;;;;;;5091115;28;1074;-68
2023/12/18 10:50:57;;;;;;;;;;;20.40;62.20;;;;;;5057761;28;1465;-70
2023/12/18 10:53:23;;;;;;;;;;;20.40;62.20;;;;;;5058803;28;1266;-70
2023/12/18 10:55:48;;;;;;;;;;;20.40;62.20;;;;;;5056544;28;1333;-70
2023/12/18 10:58:14;;;;;;;;;;;20.40;62.20;;;;;;5055462;28;1984;-70
2023/12/18 11:00:39;;;;;;;;;;;20.40;62.20;;;;;;5089841;28;1503;-71
2023/12/18 11:03:05;;;;;;;;;;;20.40;62.30;;;;;;5055165;28;1547;-70
2023/12/18 11:05:33;;;;;;;;;;;20.40;62.20;;;;;;5057601;28;1429;-70
2023/12/18 11:07:59;;;;;;;;;;;20.40;62.30;;;;;;5041605;28;1321;-70
2023/12/18 11:10:24;;;;;;;;;;;20.40;62.30;;;;;;5059011;28;1355;-70
2023/12/18 11:12:50;;;;;;;;;;;20.40;62.30;;;;;;5060708;28;1779;-70
2023/12/18 11:15:18;;;;;;;;;;;20.40;62.30;;;;;;5089603;28;1380;-70
2023/12/18 11:17:48;;;;;;;;;;;20.40;62.50;;;;;;5057535;28;1898;-69
2023/12/18 11:20:18;;;;;;;;;;;20.40;62.60;;;;;;5055851;28;1353;-70
2023/12/18 11:22:44;;;;;;;;;;;20.40;62.90;;;;;;5088263;28;1588;-68
2023/12/18 11:25:09;;;;;;;;;;;20.40;62.80;;;;;;5060205;28;1375;-68
2023/12/18 11:27:35;;;;;;;;;;;20.40;62.90;;;;;;5057285;28;1518;-68
2023/12/18 11:30:00;;;;;;;;;;;20.40;62.90;;;;;;5088867;28;1337;-69
2023/12/18 11:32:39;;;;;;;;;;;20.40;63.00;;;;;;5058650;28;1235;-68
2023/12/18 11:35:07;;;;;;;;;;;20.40;63.00;;;;;;5090767;28;1303;-68
2023/12/18 11:37:39;;;;;;;;;;;20.30;63.00;;;;;;5055768;28;1963;-68
2023/12/18 11:40:05;;;;;;;;;;;20.30;63.10;;;;;;5058558;28;1292;-68
2023/12/18 11:42:44;;;;;;;;;;;20.30;63.00;;;;;;5057557;28;1414;-68
2023/12/18 11:45:10;;;;;;;;;;;20.40;63.00;;;;;;5089090;28;1452;-67
2023/12/18 11:47:35;;;;;;;;;;;20.40;63.00;;;;;;5090679;28;1429;-68
2023/12/18 11:50:01;;;;;;;;;;;20.40;63.10;;;;;;5091802;28;1739;-68
2023/12/18 11:52:26;;;;;;;;;;;20.40;63.10;;;;;;5057209;28;1463;-67
2023/12/18 11:54:52;;;;;;;;;;;20.40;63.20;;;;;;5071364;28;1398;-69
2023/12/18 11:57:21;;;;;;;;;;;20.40;63.30;;;;;;5063647;28;1228;-67
2023/12/18 11:59:46;;;;;;;;;;;20.30;63.20;;;;;;5059793;28;1977;-67
2023/12/18 12:02:12;;;;;;;;;;;20.40;63.30;;;;;;5061503;28;1435;-68
2023/12/18 12:04:38;;;;;;;;;;;20.40;63.20;;;;;;5080659;28;1042;-68
2023/12/18 12:07:03;;;;;;;;;;;20.40;63.40;;;;;;5055382;28;1379;-68
2023/12/18 12:09:29;;;;;;;;;;;20.40;63.30;;;;;;5054696;28;1827;-68
2023/12/18 12:11:54;;;;;;;;;;;20.40;63.30;;;;;;5088082;28;1417;-69
2023/12/18 12:14:20;;;;;;;;;;;20.40;63.40;;;;;;5055799;28;1485;-68
2023/12/18 12:16:45;;;;;;;;;;;20.40;63.40;;;;;;5057753;28;1360;-68
2023/12/18 12:19:11;;;;;;;;;;;20.40;63.40;;;;;;5040932;28;1906;-68
2023/12/18 12:21:36;;;;;;;;;;;20.40;63.40;;;;;;5059410;28;1527;-68
2023/12/18 12:24:02;;;;;;;;;;;20.40;63.40;;;;;;5060368;28;1417;-68
2023/12/18 12:26:28;;;;;;;;;;;20.40;63.40;;;;;;5058326;28;1455;-68
2023/12/18 12:28:53;;;;;;;;;;;20.40;63.30;;;;;;5057018;28;1272;-68
2023/12/18 12:31:19;;;;;;;;;;;20.40;63.40;;;;;;5061513;28;1376;-69
2023/12/18 12:33:45;;;;;;;;;;;20.40;63.30;;;;;;5092051;28;1482;-68
2023/12/18 12:36:11;;;;;;;;;;;20.40;63.20;;;;;;5063599;28;1370;-69
2023/12/18 12:38:37;;;;;;;;;;;20.40;63.20;;;;;;5057984;28;1901;-69
2023/12/18 12:41:02;;;;;;;;;;;20.40;63.10;;;;;;5061387;28;1548;-69
2023/12/18 12:43:28;;;;;;;;;;;20.40;63.10;;;;;;5062101;28;1490;-69
2023/12/18 12:45:53;;;;;;;;;;;20.40;63.10;;;;;;5059954;28;1249;-69
2023/12/18 12:48:18;;;;;;;;;;;20.40;63.10;;;;;;5059841;28;1251;-68
2023/12/18 12:50:44;;;;;;;;;;;20.40;63.20;;;;;;5060555;28;1280;-69
2023/12/18 12:53:09;;;;;;;;;;;20.40;63.10;;;;;;5076574;28;1642;-69
2023/12/18 12:55:38;;;;;;;;;;;20.40;63.10;;;;;;5055268;28;1477;-69
2023/12/18 12:58:04;;;;;;;;;;;20.40;63.20;;;;;;5061389;28;1902;-68
2023/12/18 13:00:29;;;;;;;;;;;20.40;63.20;;;;;;5091205;28;1797;-68
2023/12/18 13:02:55;;;;;;;;;;;20.40;63.30;;;;;;5059051;28;1970;-69
2023/12/18 13:05:20;;;;;;;;;;;20.40;62.90;;;;;;5057829;28;1422;-70
2023/12/18 13:07:46;;;;;;;;;;;20.40;59.70;;;;;;5059300;28;1372;-69
2023/12/18 13:10:13;;;;;;;;;;;20.30;58.90;;;;;;5058440;28;1272;-69
2023/12/18 13:12:39;;;;;;;;;;;20.20;58.10;;;;;;5058977;28;1422;-70
2023/12/18 13:15:05;;;;;;;;;;;20.20;56.60;;;;;;5075451;28;1658;-70
2023/12/18 13:17:30;;;;;;;;;;;20.10;56.30;;;;;;5060089;28;1488;-69
2023/12/18 13:19:56;;;;;;;;;;;20.00;56.20;;;;;;5090797;28;1959;-69
2023/12/18 13:22:21;;;;;;;;;;;20.00;55.90;;;;;;5060182;28;1356;-69
2023/12/18 13:24:47;;;;;;;;;;;19.90;55.40;;;;;;5060910;28;1345;-69
2023/12/18 13:27:12;;;;;;;;;;;19.90;56.10;;;;;;5056768;28;1453;-69
2023/12/18 13:29:41;;;;;;;;;;;19.90;55.80;;;;;;5056560;28;1279;-69
2023/12/18 13:32:06;;;;;;;;;;;19.90;56.10;;;;;;5058056;28;884;-69
2023/12/18 13:34:32;;;;;;;;;;;19.90;55.80;;;;;;5057294;28;1374;-69
2023/12/18 13:36:58;;;;;;;;;;;19.80;55.40;;;;;;5057027;28;1419;-69
2023/12/18 13:39:24;;;;;;;;;;;19.80;55.40;;;;;;5087786;28;1898;-68
2023/12/18 13:41:49;;;;;;;;;;;19.80;55.60;;;;;;5059386;28;1089;-69
2023/12/18 13:44:15;;;;;;;;;;;19.70;55.70;;;;;;5089353;28;1732;-69
2023/12/18 13:46:41;;;;;;;;;;;19.70;55.40;;;;;;5056631;28;1365;-69
2023/12/18 13:49:06;;;;;;;;;;;19.70;55.20;;;;;;5050030;28;1470;-68
2023/12/18 13:51:34;;;;;;;;;;;19.60;55.00;;;;;;5056276;28;1492;-68
2023/12/18 13:54:00;;;;;;;;;;;19.60;55.50;;;;;;5061586;28;1418;-69
2023/12/18 13:56:26;;;;;;;;;;;19.60;55.70;;;;;;5060282;28;1273;-69
2023/12/18 13:58:52;;;;;;;;;;;19.60;55.90;;;;;;5055619;28;1971;-68
2023/12/18 14:01:17;;;;;;;;;;;19.60;56.20;;;;;;5057293;28;1523;-68
2023/12/18 14:03:43;;;;;;;;;;;19.60;56.50;;;;;;5092236;28;1393;-69
2023/12/18 14:06:08;;;;;;;;;;;19.50;56.80;;;;;;5058021;28;1509;-69
2023/12/18 14:08:34;;;;;;;;;;;19.50;57.10;;;;;;5091145;28;1491;-70
2023/12/18 14:10:59;;;;;;;;;;;19.50;57.30;;;;;;5057091;28;1944;-68
2023/12/18 14:13:25;;;;;;;;;;;19.50;57.40;;;;;;5056925;28;1741;-68
2023/12/18 14:15:50;;;;;;;;;;;19.50;57.60;;;;;;5054119;28;1764;-69
2023/12/18 14:18:16;;;;;;;;;;;19.50;57.70;;;;;;5057524;28;1901;-67
2023/12/18 14:20:41;;;;;;;;;;;19.50;57.90;;;;;;5087910;28;1369;-68
2023/12/18 14:23:07;;;;;;;;;;;19.50;58.00;;;;;;5064195;28;1336;-68